Terminal Aerodrome Forecast
Issued by NWS

Home | Current Version | Previous Version | Text Only | Print | Product List | Glossary On
Versions: 1 2 3 4 5 6 7 8 9 10 11 12 13 14 15 16 17 18 19 20 21
000
FTUS41 KPBZ 040702 AAB
TAFAGC
TAF AMD
KAGC 040702Z 0407/0506 VRB03KT 3SM -SHRA BR OVC006
      TEMPO 0407/0408 1SM +SHRA BR
     FM041300 32005KT 5SM BR BKN015
     FM041500 33008KT P6SM BKN025
     FM041700 32008KT P6SM SCT040=

USA.gov is the U.S. government's official web portal to all federal, state and local government web resources and services.